createdAt,value
2023-06-28T00:02:36.388Z,12.45
2023-06-28T00:06:37.871Z,15.20
2023-06-28T00:10:39.500Z,17.90
2023-06-28T00:14:41.118Z,14.60
2023-06-28T00:18:43.888Z,21.05
2023-06-28T00:22:45.493Z,17.92
2023-06-28T00:26:46.944Z,27.23
2023-06-28T00:30:48.368Z,19.15
2023-06-28T00:34:51.260Z,19.10
2023-06-28T00:38:52.708Z,20.00
2023-06-28T00:42:54.156Z,22.95
2023-06-28T00:46:55.940Z,17.85
2023-06-28T00:50:58.994Z,17.80
2023-06-28T00:55:00.764Z,18.60
2023-06-28T00:59:03.844Z,17.60
2023-06-28T01:03:05.417Z,20.17
2023-06-28T01:07:08.968Z,17.70
2023-06-28T01:11:11.379Z,18.25
2023-06-28T01:15:12.943Z,18.38
2023-06-28T01:19:14.898Z,14.98
2023-06-28T01:23:18.030Z,24.73
2023-06-28T01:27:19.593Z,22.95
2023-06-28T01:31:21.283Z,19.05
2023-06-28T01:35:22.777Z,19.98
2023-06-28T01:39:26.575Z,22.73
2023-06-28T01:43:28.303Z,18.20
2023-06-28T01:47:29.958Z,20.02
2023-06-28T01:51:31.478Z,18.30
2023-06-28T01:55:34.286Z,25.15
2023-06-28T01:59:35.737Z,21.02
2023-06-28T02:03:37.225Z,17.05
2023-06-28T02:07:38.955Z,9.13
2023-06-28T02:11:41.823Z,17.45
2023-06-28T02:15:43.304Z,22.55
2023-06-28T02:19:44.774Z,9.23
2023-06-28T02:23:46.239Z,22.75
2023-06-28T02:27:49.044Z,16.50
2023-06-28T02:31:50.570Z,22.27
2023-06-28T02:35:52.028Z,13.70
2023-06-28T02:39:53.493Z,17.02
2023-06-28T02:43:56.269Z,12.55
2023-06-28T02:47:57.738Z,17.00
2023-06-28T02:51:59.239Z,22.85
2023-06-28T02:56:00.677Z,20.35
2023-06-28T03:00:04.040Z,17.40
2023-06-28T03:04:05.609Z,15.73
2023-06-28T03:08:07.168Z,16.50
2023-06-28T03:12:10.079Z,19.20
2023-06-28T03:16:12.901Z,20.63
2023-06-28T03:20:14.346Z,21.83
2023-06-28T03:24:15.829Z,19.75
2023-06-28T03:28:17.317Z,19.75
2023-06-28T03:32:20.118Z,11.52
2023-06-28T03:36:21.634Z,21.05
2023-06-28T03:40:23.561Z,21.63
2023-06-28T03:44:25.069Z,21.23
2023-06-28T03:48:27.857Z,17.60
2023-06-28T03:52:29.286Z,20.55
2023-06-28T03:56:30.735Z,16.05
2023-06-28T04:00:32.174Z,9.07
2023-06-28T04:04:35.045Z,19.58
2023-06-28T04:08:36.534Z,17.63
2023-06-28T04:12:38.181Z,19.92
2023-06-28T04:16:39.653Z,21.85
2023-06-28T04:20:42.899Z,23.58
2023-06-28T04:24:44.640Z,24.08
2023-06-28T04:28:46.106Z,20.88
2023-06-28T04:32:47.574Z,16.00
2023-06-28T04:36:55.058Z,22.75
2023-06-28T04:41:06.575Z,23.45
2023-06-28T04:45:08.997Z,30.10
2023-06-28T04:49:10.454Z,23.50
2023-06-28T04:53:13.239Z,24.23
2023-06-28T04:57:15.741Z,20.50
2023-06-28T05:01:18.070Z,20.77
2023-06-28T05:05:19.571Z,18.35
2023-06-28T05:09:22.391Z,22.15
2023-06-28T05:13:23.860Z,18.33
2023-06-28T05:17:25.385Z,17.98
2023-06-28T05:21:26.949Z,10.52
2023-06-28T05:25:29.769Z,16.95
2023-06-28T05:29:32.500Z,20.58
2023-06-28T05:33:34.153Z,15.95
2023-06-28T05:37:36.618Z,16.48
2023-06-28T05:41:39.419Z,24.77
2023-06-28T05:45:40.892Z,21.75
2023-06-28T05:49:42.424Z,28.02
2023-06-28T05:53:43.881Z,17.83
2023-06-28T05:57:47.255Z,21.77
2023-06-28T06:01:48.794Z,21.58
2023-06-28T06:05:50.323Z,9.55
2023-06-28T06:09:51.827Z,18.73
2023-06-28T06:13:54.602Z,19.73
2023-06-28T06:17:56.126Z,23.63
2023-06-28T06:21:57.791Z,18.02
2023-06-28T06:25:59.335Z,23.95
2023-06-28T06:30:02.340Z,7.70
2023-06-28T06:34:03.901Z,21.58
2023-06-28T06:38:05.364Z,18.58
2023-06-28T06:42:07.019Z,8.35
2023-06-28T06:46:09.789Z,21.75
2023-06-28T06:50:11.531Z,13.82
2023-06-28T06:54:13.005Z,14.98
2023-06-28T06:58:14.457Z,14.95
2023-06-28T07:02:17.235Z,15.82
2023-06-28T07:06:18.690Z,13.38
2023-06-28T07:10:20.366Z,19.40
2023-06-28T07:14:21.840Z,20.70
2023-06-28T07:18:24.775Z,22.15
2023-06-28T07:22:26.241Z,17.10
2023-06-28T07:26:27.743Z,16.15
2023-06-28T07:30:30.816Z,13.95
2023-06-28T07:34:33.626Z,11.73
2023-06-28T07:38:35.864Z,14.13
2023-06-28T07:42:37.335Z,6.40
2023-06-28T07:46:38.767Z,16.00
2023-06-28T07:50:42.205Z,16.15
2023-06-28T07:54:43.663Z,13.25
2023-06-28T07:58:45.126Z,18.80
2023-06-28T08:02:46.594Z,10.38
2023-06-28T08:06:49.737Z,12.95
2023-06-28T08:10:51.243Z,14.77
2023-06-28T08:14:52.687Z,14.77
2023-06-28T08:18:54.369Z,14.77
2023-06-28T08:22:57.203Z,15.95
2023-06-28T08:26:58.682Z,15.77
2023-06-28T08:31:00.409Z,12.40
2023-06-28T08:35:02.019Z,15.02
2023-06-28T08:39:04.950Z,22.20
2023-06-28T08:43:07.121Z,10.77
2023-06-28T08:47:09.573Z,19.52
2023-06-28T08:51:11.090Z,12.57
2023-06-28T08:55:16.011Z,10.70
2023-06-28T09:03:19.817Z,17.98
2023-06-28T09:07:22.659Z,8.68
2023-06-28T09:11:25.762Z,13.00
2023-06-28T09:15:27.249Z,14.13
2023-06-28T09:19:28.691Z,12.45
2023-06-28T09:23:31.707Z,13.68
2023-06-28T09:27:34.487Z,13.73
2023-06-28T09:31:40.206Z,10.60
2023-06-28T09:35:42.021Z,12.38
2023-06-28T09:39:43.944Z,13.93
2023-06-28T09:43:47.685Z,14.88
2023-06-28T09:47:54.805Z,11.73
2023-06-28T09:51:57.584Z,11.13
2023-06-28T09:55:59.167Z,10.15
2023-06-28T10:00:03.258Z,11.50
2023-06-28T10:04:06.871Z,12.55
2023-06-28T10:08:10.037Z,13.02
2023-06-28T10:12:14.714Z,12.60
2023-06-28T10:16:19.985Z,12.18
2023-06-28T10:20:21.611Z,12.43
2023-06-28T10:24:23.787Z,10.90
2023-06-28T10:28:28.370Z,9.07
2023-06-28T10:32:32.517Z,11.13
2023-06-28T10:36:34.028Z,9.55
2023-06-28T10:40:35.792Z,13.07
2023-06-28T10:44:51.043Z,10.77
2023-06-28T10:48:57.792Z,9.23
2023-06-28T10:52:59.273Z,12.48
2023-06-28T10:57:09.587Z,11.05
2023-06-28T11:01:12.178Z,9.90
2023-06-28T11:05:38.709Z,7.85
2023-06-28T11:09:40.247Z,11.38
2023-06-28T11:13:46.601Z,10.48
2023-06-28T11:17:48.305Z,6.38
2023-06-28T11:21:57.329Z,12.38
2023-06-28T11:26:03.117Z,12.85
2023-06-28T11:30:05.445Z,19.95
2023-06-28T11:34:07.242Z,11.73
2023-06-28T11:38:11.650Z,11.07
2023-06-28T11:42:14.101Z,6.38
2023-06-28T11:46:17.802Z,12.70
2023-06-28T11:50:19.298Z,12.63
2023-06-28T11:54:22.086Z,12.82
2023-06-28T11:58:27.672Z,19.95
2023-06-28T12:02:29.137Z,10.18
2023-06-28T12:06:30.649Z,13.70
2023-06-28T12:10:35.186Z,15.30
2023-06-28T12:14:39.494Z,12.80
2023-06-28T12:18:55.344Z,9.35
2023-06-28T12:22:56.781Z,11.23
2023-06-28T12:26:59.664Z,11.70
2023-06-28T12:31:01.118Z,7.55
2023-06-28T12:35:02.775Z,10.10
2023-06-28T12:39:04.258Z,12.10
2023-06-28T12:43:14.504Z,8.98
2023-06-28T12:47:16.249Z,10.07
2023-06-28T12:51:17.750Z,8.63
2023-06-28T12:55:19.217Z,8.60
2023-06-28T12:59:22.002Z,9.13
2023-06-28T13:03:26.088Z,16.92
2023-06-28T13:07:27.525Z,7.35
2023-06-28T13:11:29.038Z,11.68
2023-06-28T13:15:31.841Z,4.68
2023-06-28T13:19:33.325Z,8.57
2023-06-28T13:23:34.760Z,13.63
2023-06-28T13:27:36.327Z,4.07
2023-06-28T13:31:39.250Z,5.80
2023-06-28T13:35:40.898Z,10.95
2023-06-28T13:39:42.441Z,13.05
2023-06-28T13:43:43.894Z,9.32
2023-06-28T13:47:46.870Z,8.50
2023-06-28T13:51:48.756Z,9.77
2023-06-28T13:55:50.808Z,9.93
2023-06-28T13:59:52.331Z,12.80
2023-06-28T14:03:55.187Z,7.55
2023-06-28T14:07:56.669Z,6.20
2023-06-28T14:11:59.784Z,11.73
2023-06-28T14:16:03.428Z,10.43
2023-06-28T14:20:07.698Z,8.30
2023-06-28T14:24:09.193Z,6.80
2023-06-28T14:28:10.684Z,7.85
2023-06-28T14:32:12.149Z,10.55
2023-06-28T14:36:15.059Z,8.10
2023-06-28T14:40:16.934Z,6.90
2023-06-28T14:44:18.400Z,12.05
2023-06-28T14:48:19.922Z,8.18
2023-06-28T14:52:22.728Z,8.35
2023-06-28T14:56:24.303Z,6.38
2023-06-28T15:00:25.762Z,10.57
2023-06-28T15:04:28.989Z,7.03
2023-06-28T15:08:33.343Z,11.57
2023-06-28T15:12:34.823Z,13.63
2023-06-28T15:16:36.483Z,8.20
2023-06-28T15:20:41.061Z,6.35
2023-06-28T15:24:44.333Z,3.95
2023-06-28T15:28:45.818Z,6.95
2023-06-28T15:32:47.327Z,5.00
2023-06-28T15:36:48.837Z,3.85
2023-06-28T15:40:51.677Z,7.50
2023-06-28T15:44:53.157Z,7.47
2023-06-28T15:48:54.620Z,5.55
2023-06-28T15:52:56.232Z,4.45
2023-06-28T15:56:59.036Z,10.88
2023-06-28T16:01:12.181Z,7.10
2023-06-28T16:05:13.761Z,8.45
2023-06-28T16:09:15.242Z,7.22
2023-06-28T16:13:18.033Z,5.88
2023-06-28T16:17:19.493Z,5.93
2023-06-28T16:21:21.244Z,5.55
2023-06-28T16:25:22.734Z,6.35
2023-06-28T16:29:25.635Z,4.43
2023-06-28T16:33:27.134Z,2.38
2023-06-28T16:37:28.606Z,4.45
2023-06-28T16:41:30.073Z,4.30
2023-06-28T16:45:32.930Z,4.53
2023-06-28T16:49:34.397Z,4.25
2023-06-28T16:53:35.867Z,5.28
2023-06-28T16:57:37.355Z,8.48
2023-06-28T17:01:40.245Z,3.95
2023-06-28T17:05:43.310Z,2.80
2023-06-28T17:09:45.961Z,4.72
2023-06-28T17:13:47.518Z,6.45
2023-06-28T17:17:50.394Z,7.38
2023-06-28T17:21:51.878Z,7.53
2023-06-28T17:25:53.496Z,5.40
2023-06-28T17:29:54.991Z,8.60
2023-06-28T17:33:57.788Z,7.78
2023-06-28T17:37:59.261Z,6.85
2023-06-28T17:42:00.737Z,7.57
2023-06-28T17:46:02.436Z,4.63
2023-06-28T17:50:06.521Z,7.47
2023-06-28T17:54:08.133Z,7.57
2023-06-28T17:58:09.649Z,8.45
2023-06-28T18:02:11.130Z,7.47
2023-06-28T18:06:14.016Z,3.55
2023-06-28T18:10:15.556Z,4.68
2023-06-28T18:14:17.022Z,10.43
2023-06-28T18:18:18.515Z,9.38
2023-06-28T18:22:21.341Z,5.88
2023-06-28T18:26:22.838Z,6.75
2023-06-28T18:30:24.341Z,8.13
2023-06-28T18:34:25.798Z,5.28
2023-06-28T18:38:28.588Z,8.70
2023-06-28T18:42:30.059Z,8.32
2023-06-28T18:46:31.520Z,10.23
2023-06-28T18:50:33.043Z,8.88
2023-06-28T18:54:35.820Z,8.00
2023-06-28T18:58:37.334Z,4.13
2023-06-28T19:02:38.991Z,7.93
2023-06-28T19:06:40.786Z,9.18
2023-06-28T19:10:43.662Z,9.32
2023-06-28T19:14:45.382Z,8.77
2023-06-28T19:18:46.853Z,7.75
2023-06-28T19:22:48.301Z,5.63
2023-06-28T19:26:51.072Z,7.80
2023-06-28T19:30:52.511Z,8.63
2023-06-28T19:34:54.020Z,8.02
2023-06-28T19:38:55.505Z,8.98
2023-06-28T19:42:58.294Z,8.45
2023-06-28T19:46:59.754Z,5.82
2023-06-28T19:51:01.238Z,10.95
2023-06-28T19:55:02.718Z,10.70
2023-06-28T19:59:05.483Z,5.22
2023-06-28T20:03:06.932Z,7.72
2023-06-28T20:07:08.470Z,10.55
2023-06-28T20:11:10.000Z,18.50
2023-06-28T20:15:12.821Z,9.38
2023-06-28T20:19:14.394Z,7.68
2023-06-28T20:23:15.844Z,10.27
2023-06-28T20:27:17.636Z,12.00
2023-06-28T20:31:20.514Z,12.80
2023-06-28T20:35:22.076Z,9.32
2023-06-28T20:39:23.910Z,6.28
2023-06-28T20:43:25.361Z,9.73
2023-06-28T20:47:28.178Z,11.05
2023-06-28T20:51:29.632Z,5.95
2023-06-28T20:55:31.647Z,11.82
2023-06-28T20:59:33.504Z,13.30
2023-06-28T21:03:36.308Z,8.38
2023-06-28T21:07:38.370Z,10.13
2023-06-28T21:11:39.888Z,10.63
2023-06-28T21:15:42.822Z,12.23
2023-06-28T21:19:46.584Z,12.60
2023-06-28T21:23:48.054Z,13.50
2023-06-28T21:27:49.523Z,12.60
2023-06-28T21:31:51.088Z,14.20
2023-06-28T21:35:53.979Z,23.80
2023-06-28T21:39:55.434Z,15.35
2023-06-28T21:43:57.041Z,5.60
2023-06-28T21:47:58.491Z,6.50
2023-06-28T21:52:01.309Z,10.45
2023-06-28T21:56:02.797Z,14.25
2023-06-28T22:00:04.787Z,9.98
2023-06-28T22:04:06.228Z,11.77
2023-06-28T22:08:08.995Z,10.15
2023-06-28T22:12:10.545Z,12.60
2023-06-28T22:16:12.047Z,5.30
2023-06-28T22:20:13.539Z,15.35
2023-06-28T22:24:16.308Z,12.65
2023-06-28T22:28:17.768Z,17.27
2023-06-28T22:32:19.247Z,26.65
2023-06-28T22:36:20.809Z,15.88
2023-06-28T22:40:23.608Z,16.30
2023-06-28T22:44:25.186Z,14.85
2023-06-28T22:48:26.643Z,17.58
2023-06-28T22:52:28.143Z,14.70
2023-06-28T22:56:30.899Z,16.25
2023-06-28T23:00:32.350Z,15.35
2023-06-28T23:04:33.806Z,13.30
2023-06-28T23:08:35.277Z,13.82
2023-06-28T23:12:38.122Z,15.88
2023-06-28T23:16:39.591Z,6.53
2023-06-28T23:20:41.207Z,7.85
2023-06-28T23:24:42.677Z,12.10
2023-06-28T23:28:45.681Z,11.52
2023-06-28T23:32:47.181Z,13.70
2023-06-28T23:36:48.647Z,13.38
2023-06-28T23:40:50.083Z,11.82
2023-06-28T23:44:52.851Z,13.48
2023-06-28T23:48:54.290Z,8.95
2023-06-28T23:52:55.786Z,12.35
2023-06-28T23:56:59.932Z,17.52
